Time;durP1;ratioP1;P1;durP2;ratioP2;P2;SDS_P1;SDS_P2;PMS_P1;PMS_P2;Temp;Humidity;BMP_temperature;BMP_pressure;BME280_temperature;BME280_humidity;BME280_pressure;Samples;Min_cycle;Max_cycle;Signal;HPM_P1;HPM_P2
2021/05/03 00:01:51;;;;;;;6.90;4.07;;;5.90;81.40;;;;;;5113645;28;20301;-73
2021/05/03 00:04:17;;;;;;;5.17;4.20;;;5.80;81.40;;;;;;5112808;28;20080;-73
2021/05/03 00:06:43;;;;;;;6.13;4.07;;;5.70;81.50;;;;;;5113671;28;20128;-72
2021/05/03 00:09:08;;;;;;;6.83;4.17;;;5.70;81.70;;;;;;5113618;28;20464;-72
2021/05/03 00:11:37;;;;;;;8.53;4.47;;;5.70;81.70;;;;;;5113212;28;20042;-72
2021/05/03 00:14:04;;;;;;;5.47;3.60;;;5.70;81.80;;;;;;5113309;28;20040;-72
2021/05/03 00:16:30;;;;;;;7.27;4.00;;;5.70;81.80;;;;;;5113823;28;20293;-72
2021/05/03 00:18:55;;;;;;;9.10;4.77;;;5.60;81.90;;;;;;5112159;28;20296;-72
2021/05/03 00:21:21;;;;;;;6.50;4.30;;;5.70;81.90;;;;;;5113527;28;20662;-72
2021/05/03 00:23:47;;;;;;;6.07;4.00;;;5.60;81.80;;;;;;5113015;28;20052;-72
2021/05/03 00:26:18;;;;;;;7.83;4.70;;;5.60;81.80;;;;;;5112604;28;20047;-73
2021/05/03 00:28:43;;;;;;;5.80;4.27;;;5.60;81.90;;;;;;5113248;28;20293;-73
2021/05/03 00:31:10;;;;;;;7.10;4.53;;;5.60;82.00;;;;;;5113034;28;20808;-73
2021/05/03 00:33:36;;;;;;;6.30;4.27;;;5.60;81.90;;;;;;5112630;28;20522;-72
2021/05/03 00:36:02;;;;;;;6.43;4.07;;;5.50;82.00;;;;;;5112621;28;20293;-73
2021/05/03 00:38:29;;;;;;;6.63;4.20;;;5.50;82.00;;;;;;5113013;28;20305;-72
2021/05/03 00:40:56;;;;;;;5.07;4.27;;;5.50;83.00;;;;;;5111756;28;20289;-73
2021/05/03 00:43:22;;;;;;;6.00;4.33;;;5.40;82.10;;;;;;5113131;28;20811;-72
2021/05/03 00:45:48;;;;;;;5.13;4.53;;;5.40;82.30;;;;;;5112207;28;20388;-72
2021/05/03 00:48:14;;;;;;;5.80;4.33;;;5.40;82.40;;;;;;5112610;28;20039;-71
2021/05/03 00:50:42;;;;;;;5.33;4.03;;;5.40;82.30;;;;;;5112855;28;20293;-71
2021/05/03 00:53:07;;;;;;;6.53;4.17;;;5.40;82.40;;;;;;5112169;28;20357;-72
2021/05/03 00:55:34;;;;;;;8.13;4.23;;;5.40;82.60;;;;;;5113049;28;20342;-72
2021/05/03 00:58:00;;;;;;;7.43;4.17;;;5.40;82.60;;;;;;5112025;28;20067;-72
2021/05/03 01:00:27;;;;;;;6.17;4.73;;;5.40;82.70;;;;;;5112248;28;20304;-72
2021/05/03 01:02:53;;;;;;;4.73;3.77;;;5.40;82.60;;;;;;5112153;28;20789;-71
2021/05/03 01:05:21;;;;;;;6.53;4.40;;;5.40;82.80;;;;;;5112253;28;20297;-71
2021/05/03 01:07:47;;;;;;;5.90;4.63;;;5.50;82.80;;;;;;5111479;28;20759;-70
2021/05/03 01:10:14;;;;;;;9.07;5.37;;;5.40;82.80;;;;;;5112529;28;20301;-71
2021/05/03 01:12:40;;;;;;;5.70;4.30;;;5.50;83.10;;;;;;5112674;28;20300;-71
2021/05/03 01:15:10;;;;;;;4.93;4.20;;;5.50;83.00;;;;;;5111570;28;20301;-71
2021/05/03 01:17:39;;;;;;;8.57;4.23;;;5.50;83.00;;;;;;5112635;28;20794;-70
2021/05/03 01:20:15;;;;;;;8.97;5.23;;;5.50;82.90;;;;;;5111837;28;20658;-71
2021/05/03 01:22:42;;;;;;;7.43;4.77;;;5.50;83.00;;;;;;5111617;28;20324;-71
2021/05/03 01:25:09;;;;;;;8.57;5.20;;;5.50;83.00;;;;;;5112103;28;20297;-71
2021/05/03 01:27:36;;;;;;;6.13;4.53;;;5.50;83.10;;;;;;5112452;28;20320;-71
2021/05/03 01:30:07;;;;;;;6.67;4.53;;;5.50;83.10;;;;;;5111085;28;20655;-71
2021/05/03 01:32:33;;;;;;;6.63;4.83;;;5.50;83.00;;;;;;5112281;28;20289;-71
2021/05/03 01:34:59;;;;;;;6.47;4.43;;;5.50;83.10;;;;;;5111315;28;20759;-71
2021/05/03 01:37:24;;;;;;;6.70;4.87;;;5.60;83.20;;;;;;5112257;28;20297;-72
2021/05/03 01:39:51;;;;;;;7.17;4.60;;;5.50;83.30;;;;;;5111789;28;20120;-71
2021/05/03 01:42:17;;;;;;;5.80;4.23;;;5.50;83.20;;;;;;5111145;28;20979;-72
2021/05/03 01:44:44;;;;;;;6.97;4.53;;;5.60;83.50;;;;;;5111747;28;20317;-73
2021/05/03 01:47:11;;;;;;;8.77;4.60;;;5.60;83.50;;;;;;5111819;28;20073;-72
2021/05/03 01:49:40;;;;;;;6.87;4.67;;;5.70;83.50;;;;;;5111394;28;20809;-72
2021/05/03 01:52:07;;;;;;;5.30;4.40;;;5.70;83.50;;;;;;5111885;28;20654;-72
2021/05/03 01:54:33;;;;;;;6.03;4.30;;;5.70;83.40;;;;;;5112027;28;20294;-71
2021/05/03 01:56:59;;;;;;;5.80;3.97;;;5.70;83.50;;;;;;5110687;28;20297;-72
2021/05/03 01:59:32;;;;;;;5.87;4.50;;;5.80;83.40;;;;;;5112059;28;20349;-72
2021/05/03 02:01:58;;;;;;;8.90;4.70;;;5.80;83.40;;;;;;5111445;28;20055;-72
2021/05/03 02:04:23;;;;;;;6.13;4.07;;;5.90;83.50;;;;;;5111217;28;20673;-71
2021/05/03 02:06:49;;;;;;;6.60;4.67;;;6.00;83.70;;;;;;5111821;28;20043;-71
2021/05/03 02:09:15;;;;;;;5.53;4.47;;;5.90;83.60;;;;;;5112427;28;20048;-72
2021/05/03 02:11:40;;;;;;;5.67;4.17;;;6.00;83.60;;;;;;5115281;28;20043;-72
2021/05/03 02:14:08;;;;;;;8.57;4.17;;;6.00;83.60;;;;;;5115933;28;20050;-71
2021/05/03 02:16:34;;;;;;;6.57;4.00;;;6.00;83.70;;;;;;5116099;28;20112;-71
2021/05/03 02:19:00;;;;;;;4.97;3.70;;;6.00;83.60;;;;;;5114975;28;20778;-71
2021/05/03 02:21:25;;;;;;;6.00;4.43;;;6.10;83.60;;;;;;5116022;28;20095;-71
2021/05/03 02:23:51;;;;;;;7.47;4.20;;;6.10;83.60;;;;;;5115535;28;20077;-71
2021/05/03 02:26:17;;;;;;;5.10;3.63;;;6.10;83.60;;;;;;5114950;28;20098;-71
2021/05/03 02:28:43;;;;;;;5.43;3.97;;;6.10;83.60;;;;;;5115341;28;20048;-71
2021/05/03 02:31:09;;;;;;;6.07;3.60;;;6.20;83.70;;;;;;5115301;28;20301;-71
2021/05/03 02:33:35;;;;;;;4.43;3.30;;;6.20;83.70;;;;;;5115062;28;20048;-71
2021/05/03 02:36:01;;;;;;;5.23;3.63;;;6.20;83.70;;;;;;5115177;28;20126;-71
2021/05/03 02:38:30;;;;;;;5.33;3.80;;;6.20;83.70;;;;;;5114890;28;20058;-72
2021/05/03 02:40:56;;;;;;;4.33;3.43;;;6.30;83.70;;;;;;5114757;28;20794;-71
2021/05/03 02:43:22;;;;;;;5.63;4.03;;;6.30;83.70;;;;;;5115309;28;20309;-71
2021/05/03 02:45:47;;;;;;;5.90;4.20;;;6.30;83.80;;;;;;5114740;28;20065;-71
2021/05/03 02:48:13;;;;;;;4.70;3.73;;;6.40;83.80;;;;;;5115039;28;20047;-70
2021/05/03 02:50:39;;;;;;;4.50;3.57;;;6.40;83.90;;;;;;5115377;28;20039;-71
2021/05/03 02:53:04;;;;;;;5.03;3.57;;;6.50;83.90;;;;;;5113915;28;20067;-71
2021/05/03 02:55:30;;;;;;;7.03;3.97;;;6.50;83.90;;;;;;5115287;28;20081;-70
2021/05/03 02:57:57;;;;;;;5.63;4.00;;;6.50;84.10;;;;;;5114576;28;20504;-70
2021/05/03 03:00:31;;;;;;;5.40;3.23;;;6.50;84.20;;;;;;5114584;28;20052;-70
2021/05/03 03:02:56;;;;;;;5.43;3.50;;;6.50;84.20;;;;;;5114501;28;20320;-70
2021/05/03 03:05:22;;;;;;;6.53;3.57;;;6.50;84.20;;;;;;5115054;28;20305;-70
2021/05/03 03:07:51;;;;;;;6.63;3.63;;;6.60;84.30;;;;;;5113928;28;20484;-70
2021/05/03 03:10:26;;;;;;;5.13;3.13;;;6.60;84.30;;;;;;5114664;28;20051;-70
2021/05/03 03:12:51;;;;;;;4.77;3.77;;;6.60;84.50;;;;;;5114560;28;20289;-71
2021/05/03 03:15:18;;;;;;;7.07;4.43;;;6.60;84.70;;;;;;5113977;28;20297;-69
2021/05/03 03:17:49;;;;;;;8.87;3.90;;;6.60;85.00;;;;;;5114597;28;20040;-69
2021/05/03 03:20:16;;;;;;;4.83;4.10;;;6.60;85.30;;;;;;5114089;28;20312;-69
2021/05/03 03:22:42;;;;;;;7.00;4.10;;;6.50;85.50;;;;;;5113498;28;20334;-69
2021/05/03 03:25:08;;;;;;;6.60;4.43;;;6.50;85.70;;;;;;5114056;28;20290;-68
2021/05/03 03:27:34;;;;;;;5.47;3.73;;;6.50;86.00;;;;;;5113883;28;20302;-69
2021/05/03 03:30:00;;;;;;;8.47;4.57;;;6.50;86.30;;;;;;5113867;28;20301;-69
2021/05/03 03:32:26;;;;;;;7.13;4.13;;;6.50;86.50;;;;;;5114470;28;20343;-69
2021/05/03 03:34:51;;;;;;;5.07;4.40;;;6.50;86.80;;;;;;5113380;28;20789;-68
2021/05/03 03:37:17;;;;;;;5.13;3.77;;;6.50;86.90;;;;;;5113972;28;20055;-68
2021/05/03 03:39:43;;;;;;;7.07;4.80;;;6.50;86.90;;;;;;5113658;28;20057;-68
2021/05/03 03:42:09;;;;;;;6.50;4.83;;;6.60;87.10;;;;;;5113355;28;20139;-69
2021/05/03 03:44:35;;;;;;;5.97;4.53;;;6.50;87.30;;;;;;5114235;28;20044;-68
2021/05/03 03:47:00;;;;;;;8.00;4.40;;;6.60;87.40;;;;;;5113650;28;20346;-68
2021/05/03 03:49:27;;;;;;;5.57;4.70;;;6.60;87.60;;;;;;5113397;28;20056;-68
2021/05/03 03:51:53;;;;;;;7.07;4.97;;;6.50;87.70;;;;;;5113699;28;20066;-68
2021/05/03 03:54:19;;;;;;;6.93;5.00;;;6.50;87.90;;;;;;5113690;28;20718;-68
2021/05/03 03:56:44;;;;;;;7.50;4.50;;;6.40;88.20;;;;;;5113070;28;20043;-68
2021/05/03 03:59:11;;;;;;;8.70;5.27;;;6.40;88.20;;;;;;5113687;28;20530;-68
2021/05/03 04:01:37;;;;;;;8.13;4.90;;;6.40;88.60;;;;;;5113825;28;20377;-68
2021/05/03 04:04:12;;;;;;;7.80;5.27;;;6.40;88.80;;;;;;5112375;28;20313;-68
2021/05/03 04:12:25;;;;;;;6.85;5.15;;;6.30;89.10;;;;;;5095860;28;20349;-68
2021/05/03 04:28:01;;;;;;;7.50;5.85;;;6.20;90.10;;;;;;5113009;28;20423;-67
2021/05/03 04:30:27;;;;;;;8.90;5.77;;;6.20;90.20;;;;;;5113128;28;20488;-67
2021/05/03 04:32:53;;;;;;;8.40;6.20;;;6.20;90.30;;;;;;5111530;28;20335;-68
2021/05/03 04:35:18;;;;;;;9.07;5.77;;;6.20;90.40;;;;;;5112846;28;20063;-68
2021/05/03 04:37:44;;;;;;;8.63;6.17;;;6.20;90.50;;;;;;5112834;28;20056;-68
2021/05/03 04:40:10;;;;;;;6.77;5.67;;;6.20;90.40;;;;;;5111716;28;20059;-67
2021/05/03 04:42:36;;;;;;;7.80;5.97;;;6.20;90.40;;;;;;5113044;28;20069;-68
2021/05/03 04:45:03;;;;;;;9.93;5.70;;;6.20;90.40;;;;;;5111454;28;20770;-68
2021/05/03 04:47:28;;;;;;;8.63;6.17;;;6.10;90.40;;;;;;5112731;28;20040;-67
2021/05/03 04:49:54;;;;;;;7.93;6.37;;;6.10;90.80;;;;;;5112272;28;20302;-67
2021/05/03 04:52:20;;;;;;;8.03;5.53;;;6.00;90.70;;;;;;5112002;28;20051;-67
2021/05/03 04:54:46;;;;;;;9.87;6.27;;;6.00;91.20;;;;;;5112340;28;20073;-68
2021/05/03 04:57:11;;;;;;;10.03;7.07;;;6.00;90.90;;;;;;5112569;28;20092;-68
2021/05/03 04:59:37;;;;;;;11.13;6.53;;;5.90;90.80;;;;;;5112079;28;20116;-68
2021/05/03 05:02:03;;;;;;;9.30;7.37;;;5.90;90.90;;;;;;5112068;28;20408;-68
2021/05/03 05:04:28;;;;;;;10.17;7.27;;;5.90;90.90;;;;;;5112577;28;20071;-68
2021/05/03 05:06:57;;;;;;;10.20;7.97;;;5.90;91.00;;;;;;5111574;28;20058;-68
2021/05/03 05:09:23;;;;;;;11.93;8.07;;;5.80;91.20;;;;;;5112622;28;20043;-68
2021/05/03 05:11:48;;;;;;;8.93;7.60;;;5.90;91.30;;;;;;5112299;28;20293;-68
2021/05/03 05:14:14;;;;;;;10.17;7.43;;;5.90;91.30;;;;;;5111542;28;20055;-68
2021/05/03 05:16:40;;;;;;;11.37;8.83;;;5.90;91.30;;;;;;5112485;28;20526;-68
2021/05/03 05:19:07;;;;;;;12.13;8.73;;;5.90;91.50;;;;;;5112006;28;20047;-68
2021/05/03 05:21:35;;;;;;;11.50;8.50;;;5.90;91.40;;;;;;5111457;28;20297;-67
2021/05/03 05:24:01;;;;;;;9.40;8.13;;;5.90;91.60;;;;;;5111507;28;20726;-67
2021/05/03 05:26:27;;;;;;;10.43;8.77;;;5.90;91.40;;;;;;5112275;28;20293;-68
2021/05/03 05:28:53;;;;;;;10.60;8.23;;;5.90;91.50;;;;;;5111441;28;20316;-68
2021/05/03 05:31:19;;;;;;;12.13;8.83;;;5.90;91.50;;;;;;5111974;28;20048;-68
2021/05/03 05:33:44;;;;;;;13.23;9.83;;;5.90;91.50;;;;;;5111733;28;20662;-68
2021/05/03 05:36:10;;;;;;;12.73;10.43;;;5.90;91.60;;;;;;5111014;28;20398;-69
2021/05/03 05:38:37;;;;;;;12.93;10.93;;;5.90;91.70;;;;;;5111953;28;20049;-68
2021/05/03 05:41:03;;;;;;;17.10;11.63;;;5.90;91.70;;;;;;5111288;28;20075;-68
2021/05/03 05:43:29;;;;;;;13.37;11.17;;;5.90;91.70;;;;;;5111207;28;20674;-68
2021/05/03 05:45:55;;;;;;;17.93;12.93;;;5.90;91.70;;;;;;5111452;28;20419;-68
2021/05/03 05:48:22;;;;;;;16.90;12.77;;;6.00;91.80;;;;;;5111252;28;20070;-67
2021/05/03 05:50:48;;;;;;;16.23;13.60;;;6.10;91.80;;;;;;5111599;28;20058;-68
2021/05/03 05:53:14;;;;;;;17.40;14.50;;;6.10;91.70;;;;;;5111472;28;20418;-69
2021/05/03 05:55:40;;;;;;;14.17;11.50;;;6.20;92.00;;;;;;5111358;28;20323;-68
2021/05/03 05:58:06;;;;;;;12.63;11.13;;;6.30;91.70;;;;;;5111661;28;20050;-69
2021/05/03 06:00:33;;;;;;;10.47;8.90;;;6.20;91.60;;;;;;5112035;28;20289;-68
2021/05/03 06:02:58;;;;;;;12.63;10.33;;;6.10;91.50;;;;;;5110603;28;20297;-69
2021/05/03 06:05:24;;;;;;;14.17;9.30;;;6.10;91.60;;;;;;5111740;28;20621;-68
2021/05/03 06:07:51;;;;;;;10.30;8.30;;;6.10;91.50;;;;;;5111791;28;20051;-69
2021/05/03 06:10:17;;;;;;;9.63;8.63;;;6.20;91.40;;;;;;5110830;28;20051;-68
2021/05/03 06:12:43;;;;;;;10.27;8.03;;;6.20;91.30;;;;;;5111290;28;20818;-69
2021/05/03 06:15:09;;;;;;;10.43;9.33;;;6.20;91.40;;;;;;5111317;28;20301;-69
2021/05/03 06:17:35;;;;;;;10.73;9.63;;;6.30;91.30;;;;;;5110877;28;20048;-69
2021/05/03 06:20:01;;;;;;;11.97;10.00;;;6.30;91.20;;;;;;5111047;28;20297;-69
2021/05/03 06:22:28;;;;;;;10.53;8.17;;;6.40;91.30;;;;;;5111826;28;20289;-69
2021/05/03 06:24:55;;;;;;;13.93;9.60;;;6.50;91.20;;;;;;5110621;28;20048;-68
2021/05/03 06:27:20;;;;;;;12.60;9.80;;;6.50;91.10;;;;;;5111484;28;20812;-68
2021/05/03 06:29:46;;;;;;;10.40;8.83;;;6.60;91.10;;;;;;5111187;28;20293;-68
2021/05/03 06:32:12;;;;;;;12.07;9.10;;;6.60;90.90;;;;;;5110324;28;20073;-69
2021/05/03 06:34:38;;;;;;;10.67;9.60;;;6.50;90.90;;;;;;5111473;28;20297;-69
2021/05/03 06:37:03;;;;;;;11.57;8.80;;;6.50;91.10;;;;;;5111116;28;20489;-69
2021/05/03 06:39:29;;;;;;;12.00;9.90;;;6.50;91.30;;;;;;5110739;28;20059;-69
2021/05/03 06:41:55;;;;;;;10.83;9.27;;;6.50;91.30;;;;;;5110930;28;20056;-69
2021/05/03 06:44:21;;;;;;;10.57;9.43;;;6.50;91.20;;;;;;5111257;28;20047;-69
2021/05/03 06:46:47;;;;;;;9.97;7.77;;;6.50;91.40;;;;;;5110336;28;20800;-69
2021/05/03 06:49:14;;;;;;;11.47;9.93;;;6.50;91.60;;;;;;5111029;28;20371;-68
2021/05/03 06:51:39;;;;;;;11.37;9.77;;;6.50;91.40;;;;;;5110877;28;20350;-69
2021/05/03 06:54:05;;;;;;;11.13;9.87;;;6.50;91.40;;;;;;5110771;28;20774;-69
2021/05/03 06:56:31;;;;;;;13.47;10.43;;;6.40;91.60;;;;;;5113904;28;20389;-69
2021/05/03 06:58:56;;;;;;;10.70;9.20;;;6.50;91.80;;;;;;5113775;28;20049;-69
2021/05/03 07:01:22;;;;;;;11.37;9.80;;;6.40;91.70;;;;;;5114936;28;20051;-69
2021/05/03 07:03:49;;;;;;;8.80;7.90;;;6.50;91.80;;;;;;5114560;28;20079;-68
2021/05/03 07:06:14;;;;;;;7.40;6.47;;;6.50;91.90;;;;;;5113896;28;20918;-69
2021/05/03 07:08:41;;;;;;;9.13;7.60;;;6.40;91.80;;;;;;5114906;28;20373;-69
2021/05/03 07:11:19;;;;;;;8.53;7.23;;;6.50;91.80;;;;;;5114637;28;20122;-69
2021/05/03 07:13:45;;;;;;;8.93;7.83;;;6.50;91.90;;;;;;5113648;28;20433;-69
2021/05/03 07:16:10;;;;;;;10.63;8.70;;;6.60;91.90;;;;;;5114257;28;20317;-69
2021/05/03 07:18:36;;;;;;;9.90;8.33;;;6.60;91.90;;;;;;5114461;28;20484;-69
2021/05/03 07:21:03;;;;;;;14.00;11.73;;;6.70;91.90;;;;;;5113571;28;20058;-69
2021/05/03 07:23:29;;;;;;;14.23;11.63;;;6.70;91.80;;;;;;5114442;28;20320;-69
2021/05/03 07:25:56;;;;;;;14.73;11.53;;;6.80;91.90;;;;;;5113977;28;20289;-69
2021/05/03 07:28:22;;;;;;;14.37;12.87;;;6.90;92.00;;;;;;5113696;28;20054;-69
2021/05/03 07:30:47;;;;;;;14.77;13.27;;;6.90;92.00;;;;;;5113867;28;20301;-69
2021/05/03 07:33:13;;;;;;;20.53;15.77;;;7.00;92.00;;;;;;5114184;28;20085;-69
2021/05/03 07:35:39;;;;;;;22.90;19.60;;;7.10;92.10;;;;;;5113782;28;20293;-69
2021/05/03 07:38:04;;;;;;;22.43;20.13;;;7.20;92.00;;;;;;5113834;28;20484;-70
2021/05/03 07:40:30;;;;;;;23.77;21.27;;;7.20;91.90;;;;;;5114299;28;20063;-69
2021/05/03 07:42:57;;;;;;;25.30;21.40;;;7.40;92.00;;;;;;5106307;28;20036;-71
2021/05/03 07:45:23;;;;;;;26.03;21.03;;;7.40;91.90;;;;;;5111007;28;20051;-71
2021/05/03 07:47:49;;;;;;;26.73;23.63;;;7.50;91.70;;;;;;5107897;28;20308;-71
2021/05/03 07:50:15;;;;;;;26.50;22.10;;;7.60;91.70;;;;;;5109340;28;20056;-70
2021/05/03 07:52:41;;;;;;;26.00;22.40;;;7.70;91.40;;;;;;5110111;28;20047;-70
2021/05/03 07:55:10;;;;;;;26.53;22.87;;;7.80;91.30;;;;;;5110176;28;20320;-70
2021/05/03 07:57:35;;;;;;;28.73;23.50;;;7.90;91.10;;;;;;5110572;28;20504;-69
2021/05/03 08:00:01;;;;;;;26.40;22.93;;;8.00;91.10;;;;;;5109742;28;20376;-69
2021/05/03 08:02:27;;;;;;;26.50;22.43;;;8.20;91.00;;;;;;5109599;28;20082;-70
2021/05/03 08:04:53;;;;;;;27.67;24.37;;;8.40;90.90;;;;;;5110463;28;20051;-69
2021/05/03 08:07:19;;;;;;;28.43;24.57;;;8.60;90.60;;;;;;5109065;28;20415;-69
2021/05/03 08:09:44;;;;;;;29.20;24.20;;;8.80;90.50;;;;;;5109493;28;20039;-69
2021/05/03 08:12:10;;;;;;;28.00;24.60;;;8.90;90.40;;;;;;5110368;28;20645;-69
2021/05/03 08:14:36;;;;;;;30.90;26.70;;;9.10;90.30;;;;;;5110061;28;20051;-71
2021/05/03 08:17:07;;;;;;;31.27;26.67;;;9.20;90.20;;;;;;5109554;28;20123;-71
2021/05/03 08:19:34;;;;;;;35.17;30.02;;;9.40;90.20;;;;;;5110210;28;20321;-72
2021/05/03 08:22:01;;;;;;;36.93;30.87;;;9.70;90.20;;;;;;5109140;28;20120;-72
2021/05/03 08:24:31;;;;;;;37.43;32.90;;;9.80;89.10;;;;;;5106674;28;20332;-73
2021/05/03 08:26:58;;;;;;;36.27;32.37;;;9.80;89.10;;;;;;5109482;28;20300;-71
2021/05/03 08:29:24;;;;;;;36.30;32.20;;;10.00;88.70;;;;;;5110038;28;20051;-71
2021/05/03 08:31:50;;;;;;;35.37;31.67;;;10.20;88.60;;;;;;5109193;28;20069;-71
2021/05/03 08:34:16;;;;;;;36.93;32.23;;;10.40;87.80;;;;;;5103244;27;20059;-71
2021/05/03 08:36:41;;;;;;;39.20;34.47;;;10.50;87.70;;;;;;5109345;28;20047;-72
2021/05/03 08:39:08;;;;;;;41.80;34.23;;;10.80;87.70;;;;;;5108957;28;20155;-71
2021/05/03 08:41:34;;;;;;;37.57;30.83;;;11.20;88.10;;;;;;5109657;28;20090;-70
2021/05/03 08:44:00;;;;;;;32.90;29.40;;;11.60;87.40;;;;;;5108121;28;20055;-70
2021/05/03 08:46:28;;;;;;;28.90;25.37;;;11.90;86.70;;;;;;5109244;28;20051;-72
2021/05/03 08:49:03;;;;;;;29.20;25.53;;;12.30;85.30;;;;;;5107253;28;20054;-73
2021/05/03 08:51:36;;;;;;;32.87;26.03;;;12.80;84.30;;;;;;5108251;28;20081;-71
2021/05/03 08:54:10;;;;;;;25.87;23.27;;;13.30;83.00;;;;;;5094392;28;20109;-71
2021/05/03 08:56:36;;;;;;;25.30;22.33;;;13.60;81.30;;;;;;5099236;28;20051;-71
2021/05/03 08:59:02;;;;;;;23.50;21.07;;;13.80;80.10;;;;;;5107217;28;20104;-69
2021/05/03 09:01:28;;;;;;;23.83;21.43;;;13.80;78.10;;;;;;5108528;28;20062;-71
2021/05/03 09:03:54;;;;;;;23.83;21.43;;;13.60;77.20;;;;;;5107766;28;20044;-71
2021/05/03 09:06:20;;;;;;;22.17;19.87;;;13.40;77.30;;;;;;5106427;28;20051;-72
2021/05/03 09:09:05;;;;;;;21.50;18.03;;;13.20;76.30;;;;;;5107653;28;20058;-70
2021/05/03 09:11:31;;;;;;;19.90;17.80;;;12.80;75.60;;;;;;5109272;28;20467;-71
2021/05/03 09:14:10;;;;;;;22.67;20.23;;;12.30;76.10;;;;;;5106690;27;20139;-70
2021/05/03 09:16:45;;;;;;;19.90;17.80;;;12.00;76.30;;;;;;5089178;28;20055;-70
2021/05/03 09:19:12;;;;;;;20.37;16.57;;;11.60;76.80;;;;;;5087921;28;20047;-71
2021/05/03 09:21:39;;;;;;;14.33;12.80;;;11.30;77.80;;;;;;5089407;28;20048;-70
2021/05/03 09:24:15;;;;;;;12.03;10.37;;;10.90;78.50;;;;;;5089240;27;20505;-68
2021/05/03 09:26:49;;;;;;;9.83;8.00;;;10.50;79.40;;;;;;5107628;28;20531;-68
2021/05/03 09:29:39;;;;;;;7.73;6.00;;;10.10;80.20;;;;;;5109018;28;20044;-68
2021/05/03 09:32:06;;;;;;;8.27;5.77;;;9.80;80.80;;;;;;5109114;28;20071;-68
2021/05/03 09:34:33;;;;;;;7.93;6.43;;;9.60;81.40;;;;;;5108584;28;20048;-69
2021/05/03 09:37:19;;;;;;;8.93;7.40;;;9.60;81.80;;;;;;5108550;28;20464;-69
2021/05/03 09:39:58;;;;;;;11.43;10.23;;;9.50;82.60;;;;;;5109197;28;20062;-68
2021/05/03 09:42:24;;;;;;;12.60;11.30;;;9.60;83.00;;;;;;5108575;28;20150;-68
2021/05/03 09:45:10;;;;;;;16.53;12.30;;;9.70;83.30;;;;;;5108810;28;20193;-68
2021/05/03 09:47:37;;;;;;;15.20;13.13;;;9.70;83.20;;;;;;5108378;28;20075;-68
2021/05/03 09:50:08;;;;;;;16.17;14.43;;;9.70;83.30;;;;;;5108436;28;20044;-68
2021/05/03 09:52:34;;;;;;;17.95;13.82;;;9.80;83.70;;;;;;5109380;28;20297;-68
2021/05/03 09:55:00;;;;;;;15.77;13.63;;;9.80;83.70;;;;;;5107906;28;20805;-68
2021/05/03 09:57:26;;;;;;;17.87;13.63;;;9.90;83.30;;;;;;5109010;28;20472;-68
2021/05/03 09:59:54;;;;;;;16.80;13.60;;;9.80;83.50;;;;;;5108708;28;20044;-67
2021/05/03 10:02:24;;;;;;;16.37;13.73;;;9.80;84.00;;;;;;5108542;28;20044;-68
2021/05/03 10:05:12;;;;;;;13.93;12.53;;;9.80;84.00;;;;;;5108698;28;20146;-68
2021/05/03 10:07:50;;;;;;;17.40;13.83;;;9.70;84.20;;;;;;5109431;28;20043;-68
2021/05/03 10:10:22;;;;;;;16.33;13.90;;;9.70;84.40;;;;;;5110833;28;20043;-68
2021/05/03 10:12:52;;;;;;;19.47;17.40;;;9.60;84.60;;;;;;5111580;28;20131;-68
2021/05/03 10:15:18;;;;;;;20.37;17.93;;;9.60;84.80;;;;;;5111402;28;20083;-68
2021/05/03 10:17:45;;;;;;;22.97;19.60;;;9.50;85.10;;;;;;5110556;28;20563;-69
2021/05/03 10:20:16;;;;;;;26.40;21.80;;;9.50;85.20;;;;;;5111352;28;20446;-68
2021/05/03 10:22:43;;;;;;;27.83;24.25;;;9.50;85.80;;;;;;5110579;28;20309;-67
2021/05/03 10:25:17;;;;;;;26.83;23.97;;;9.70;86.50;;;;;;5111539;28;20134;-68
2021/05/03 10:27:46;;;;;;;30.83;27.57;;;9.80;86.00;;;;;;5111448;28;20290;-67
2021/05/03 10:30:17;;;;;;;31.37;28.03;;;9.90;86.10;;;;;;5111240;28;20048;-67
2021/05/03 10:32:57;;;;;;;34.80;31.05;;;9.90;85.90;;;;;;5115207;28;20044;-67
2021/05/03 10:35:27;;;;;;;40.40;35.60;;;9.90;86.10;;;;;;5115097;28;20081;-67
2021/05/03 10:37:54;;;;;;;46.30;37.87;;;10.20;87.10;;;;;;5114046;27;20039;-68
2021/05/03 10:40:19;;;;;;;44.70;37.07;;;10.50;87.40;;;;;;5114910;28;20082;-67
2021/05/03 10:45:43;;;;;;;42.20;37.67;;;11.10;87.80;;;;;;5114288;28;20134;-68
2021/05/03 10:51:35;;;;;;;44.47;39.57;;;11.70;86.90;;;;;;5030826;28;20046;-68
2021/05/03 10:56:49;;;;;;;42.50;37.93;;;12.20;85.00;;;;;;5094857;28;20047;-68
2021/05/03 10:59:16;;;;;;;44.43;39.63;;;12.30;84.00;;;;;;5114125;28;20063;-68
2021/05/03 11:01:54;;;;;;;43.03;38.70;;;12.30;82.60;;;;;;5114714;28;20067;-69
2021/05/03 11:04:30;;;;;;;44.77;39.67;;;12.20;82.60;;;;;;5114709;28;20465;-68
2021/05/03 11:06:56;;;;;;;46.33;39.57;;;12.10;83.20;;;;;;5113627;28;20039;-69
2021/05/03 11:09:28;;;;;;;45.17;39.97;;;12.00;83.80;;;;;;5114502;28;20051;-68
2021/05/03 11:11:58;;;;;;;46.17;41.43;;;12.00;84.20;;;;;;5113816;28;20047;-69
2021/05/03 11:14:26;;;;;;;44.80;40.07;;;12.00;84.30;;;;;;5114573;28;20465;-68
2021/05/03 11:17:01;;;;;;;47.27;42.37;;;12.10;84.20;;;;;;5114461;28;20104;-68
2021/05/03 11:19:38;;;;;;;43.57;38.97;;;12.10;84.00;;;;;;5113860;28;20052;-68
2021/05/03 11:22:06;;;;;;;48.47;41.93;;;12.10;84.20;;;;;;5114064;28;20092;-69
2021/05/03 11:24:37;;;;;;;44.20;39.70;;;12.10;84.30;;;;;;5114471;28;20082;-69
2021/05/03 11:27:14;;;;;;;45.77;40.97;;;12.00;84.10;;;;;;5113378;28;20063;-69
2021/05/03 11:29:45;;;;;;;43.17;38.43;;;12.00;84.20;;;;;;5114497;28;20056;-69
2021/05/03 11:32:12;;;;;;;42.27;37.70;;;12.00;84.30;;;;;;5114035;28;20077;-69
2021/05/03 11:37:31;;;;;;;31.77;28.37;;;12.10;83.60;;;;;;5114679;28;20055;-69
2021/05/03 11:40:14;;;;;;;29.53;26.40;;;12.30;83.20;;;;;;5112741;28;20089;-69
2021/05/03 11:45:28;;;;;;;26.83;24.13;;;12.80;81.50;;;;;;5113966;28;20552;-69
2021/05/03 11:47:55;;;;;;;26.10;23.13;;;13.10;80.30;;;;;;5112874;28;20503;-69
2021/05/03 11:50:23;;;;;;;22.00;19.80;;;13.40;78.80;;;;;;5114115;27;20344;-69
2021/05/03 11:52:49;;;;;;;24.07;21.63;;;13.60;77.80;;;;;;5113599;28;20131;-69
2021/05/03 11:55:17;;;;;;;23.43;19.03;;;13.70;76.10;;;;;;5112731;28;20127;-69
2021/05/03 11:57:47;;;;;;;21.47;19.23;;;13.80;73.70;;;;;;5113705;27;20052;-70
2021/05/03 12:00:27;;;;;;;19.20;17.30;;;13.80;73.00;;;;;;5113660;28;20044;-68
2021/05/03 12:03:11;;;;;;;20.43;17.03;;;13.70;71.70;;;;;;5112875;28;20047;-69
2021/05/03 12:05:37;;;;;;;20.40;18.00;;;13.50;70.40;;;;;;5113903;28;20043;-69
2021/05/03 12:08:16;;;;;;;18.63;16.73;;;13.30;71.40;;;;;;5112439;28;20508;-70
2021/05/03 12:10:42;;;;;;;18.37;16.47;;;13.20;70.60;;;;;;5113311;28;20043;-69
2021/05/03 12:13:15;;;;;;;19.07;15.30;;;13.00;71.00;;;;;;5113394;28;20112;-68
2021/05/03 12:15:41;;;;;;;16.97;13.60;;;12.90;70.40;;;;;;5112612;28;20055;-70
2021/05/03 12:18:07;;;;;;;13.43;11.77;;;12.90;70.30;;;;;;5112823;28;20498;-69
2021/05/03 12:20:34;;;;;;;11.70;10.20;;;12.80;69.90;;;;;;5113224;28;20048;-70
2021/05/03 12:23:04;;;;;;;10.73;8.63;;;12.80;69.50;;;;;;5111616;28;20135;-68
2021/05/03 12:25:41;;;;;;;8.83;7.83;;;12.80;68.40;;;;;;5113603;28;20044;-69
2021/05/03 12:28:21;;;;;;;13.00;7.93;;;13.00;68.00;;;;;;5112946;28;20040;-69
2021/05/03 12:30:48;;;;;;;10.10;8.37;;;13.20;66.80;;;;;;5110915;28;20047;-70
2021/05/03 12:33:18;;;;;;;9.97;8.43;;;13.50;66.80;;;;;;5112783;28;20052;-70
2021/05/03 12:35:48;;;;;;;11.77;10.53;;;13.80;66.60;;;;;;5112368;28;20445;-72
2021/05/03 12:38:28;;;;;;;11.88;10.25;;;14.00;65.60;;;;;;5112055;28;20059;-70
2021/05/03 12:40:55;;;;;;;12.33;11.03;;;14.20;64.90;;;;;;5112505;28;20563;-69
2021/05/03 12:43:30;;;;;;;13.00;11.60;;;14.20;64.10;;;;;;5111712;28;20044;-70
2021/05/03 12:46:11;;;;;;;12.67;11.40;;;14.20;63.40;;;;;;5112488;28;20113;-70
2021/05/03 12:48:52;;;;;;;13.70;11.90;;;14.00;63.70;;;;;;5112835;28;20047;-69
2021/05/03 12:51:33;;;;;;;12.07;10.88;;;13.70;63.10;;;;;;5111996;28;20078;-69
2021/05/03 12:54:27;;;;;;;11.80;10.60;;;13.50;64.10;;;;;;5111652;28;20044;-70
2021/05/03 12:59:42;;;;;;;10.07;9.03;;;13.10;66.00;;;;;;5112151;28;20077;-69
2021/05/03 13:02:28;;;;;;;9.53;8.63;;;13.20;66.00;;;;;;5106066;28;20044;-69
2021/05/03 13:05:13;;;;;;;10.17;8.63;;;13.10;65.60;;;;;;5101014;28;20093;-69
2021/05/03 13:29:59;;;;;;;10.07;8.20;;;12.80;66.00;;;;;;5108235;28;20456;-70
2021/05/03 13:32:27;;;;;;;9.63;8.30;;;12.70;67.00;;;;;;5108572;28;20051;-69
2021/05/03 13:34:54;;;;;;;9.93;8.67;;;12.60;66.80;;;;;;5108171;28;20492;-70
2021/05/03 13:37:20;;;;;;;9.47;8.50;;;12.50;67.50;;;;;;5108830;28;20081;-69
2021/05/03 13:39:47;;;;;;;9.13;7.97;;;12.40;68.80;;;;;;5107894;28;20125;-67
2021/05/03 13:42:14;;;;;;;9.83;8.13;;;12.20;69.50;;;;;;5109012;28;20077;-68
2021/05/03 13:44:40;;;;;;;10.07;7.83;;;12.10;70.80;;;;;;5107964;28;20125;-69
2021/05/03 13:47:06;;;;;;;8.53;7.63;;;12.00;70.90;;;;;;5107931;28;20496;-68
2021/05/03 13:49:34;;;;;;;9.63;7.97;;;12.00;71.10;;;;;;5109155;28;20126;-68